Time;durP1;ratioP1;P1;durP2;ratioP2;P2;SDS_P1;SDS_P2;PMS_P1;PMS_P2;Temp;Humidity;BMP_temperature;BMP_pressure;BME280_temperature;BME280_humidity;BME280_pressure;Samples;Min_cycle;Max_cycle;Signal;HPM_P1;HPM_P2
2022/01/30 00:01:23;;;;;;;20.50;3.25;;;9.80;99.90;;;;;;5015119;28;20034;-54
2022/01/30 00:03:48;;;;;;;15.25;3.42;;;9.80;99.90;;;;;;5014604;28;20026;-50
2022/01/30 00:06:14;;;;;;;13.90;2.65;;;9.80;99.90;;;;;;5015916;28;20105;-54
2022/01/30 00:08:39;;;;;;;17.15;2.80;;;9.80;99.90;;;;;;5016198;28;20514;-51
2022/01/30 00:11:13;;;;;;;22.67;3.17;;;9.70;99.90;;;;;;5014642;28;20021;-51
2022/01/30 00:13:39;;;;;;;12.80;3.45;;;9.70;99.90;;;;;;5014534;28;20400;-51
2022/01/30 00:16:08;;;;;;;8.57;2.15;;;9.80;99.90;;;;;;5014821;28;20033;-52
2022/01/30 00:21:30;;;;;;;9.18;2.38;;;9.80;99.90;;;;;;5015818;28;20018;-53
2022/01/30 00:26:28;;;;;;;12.85;2.30;;;9.70;99.90;;;;;;5015877;28;20058;-52
2022/01/30 00:28:53;;;;;;;19.95;2.42;;;9.70;99.90;;;;;;5013798;28;20029;-48
2022/01/30 00:31:21;;;;;;;12.65;2.83;;;9.60;99.90;;;;;;5014221;28;20026;-53
2022/01/30 00:33:46;;;;;;;7.70;2.25;;;9.60;99.90;;;;;;5014193;28;20033;-50
2022/01/30 00:36:12;;;;;;;11.95;2.47;;;9.60;99.90;;;;;;5015535;28;20025;-48
2022/01/30 00:38:38;;;;;;;9.88;2.30;;;9.50;99.90;;;;;;5014022;28;20065;-50
2022/01/30 00:41:35;;;;;;;9.35;2.42;;;9.60;99.90;;;;;;5014601;28;20026;-47
2022/01/30 00:44:01;;;;;;;19.65;3.65;;;9.60;99.90;;;;;;5014306;28;20029;-53
2022/01/30 00:46:27;;;;;;;11.68;2.35;;;9.50;99.90;;;;;;5014622;28;20052;-54
2022/01/30 00:48:52;;;;;;;11.32;2.42;;;9.40;99.90;;;;;;5015831;28;20033;-58
2022/01/30 00:51:18;;;;;;;11.88;2.53;;;9.40;99.90;;;;;;5016376;28;20025;-58
2022/01/30 00:53:44;;;;;;;10.30;2.42;;;9.40;99.90;;;;;;5017429;28;20026;-58
2022/01/30 00:56:10;;;;;;;13.57;2.03;;;9.40;99.90;;;;;;5016852;28;20120;-58
2022/01/30 00:58:36;;;;;;;13.15;2.53;;;9.30;99.90;;;;;;5017538;28;20084;-59
2022/01/30 01:01:01;;;;;;;13.82;2.58;;;9.40;99.90;;;;;;5017895;28;20033;-58
2022/01/30 01:03:27;;;;;;;8.52;1.75;;;9.30;99.90;;;;;;5015883;28;20032;-57
2022/01/30 01:05:53;;;;;;;10.60;2.35;;;9.40;99.90;;;;;;5015798;28;20122;-58
2022/01/30 01:08:29;;;;;;;7.70;1.90;;;9.40;99.90;;;;;;5015911;28;20026;-59
2022/01/30 01:11:09;;;;;;;11.52;2.10;;;9.30;99.90;;;;;;5016306;28;20089;-59
2022/01/30 01:24:07;;;;;;;11.07;2.13;;;9.40;99.90;;;;;;5016971;28;20114;-59
2022/01/30 01:26:35;;;;;;;13.55;2.13;;;9.40;99.90;;;;;;5015468;28;20037;-59
2022/01/30 01:29:01;;;;;;;12.18;2.13;;;9.40;99.90;;;;;;5015855;28;20030;-59
2022/01/30 01:31:26;;;;;;;10.52;2.42;;;9.40;99.90;;;;;;5015634;28;20045;-57
2022/01/30 01:36:37;;;;;;;13.40;2.22;;;9.40;99.90;;;;;;5016859;28;20092;-58
2022/01/30 01:39:04;;;;;;;15.15;2.58;;;9.30;99.90;;;;;;5014361;28;20033;-58
2022/01/30 01:41:32;;;;;;;12.40;1.77;;;9.20;99.90;;;;;;5015555;28;20061;-58
2022/01/30 01:43:58;;;;;;;13.18;2.10;;;9.30;99.90;;;;;;5014614;28;20118;-59
2022/01/30 01:46:28;;;;;;;9.15;2.22;;;9.30;99.90;;;;;;5016431;28;20028;-59
2022/01/30 01:48:54;;;;;;;9.25;1.80;;;9.30;99.90;;;;;;5016840;28;20049;-55
2022/01/30 01:51:23;;;;;;;8.43;2.40;;;9.30;99.90;;;;;;5015425;28;20029;-59
2022/01/30 01:53:51;;;;;;;7.80;1.92;;;9.20;99.90;;;;;;5015069;28;20033;-59
2022/01/30 01:56:18;;;;;;;10.63;2.53;;;9.30;99.90;;;;;;5014837;28;20030;-59
2022/01/30 01:58:44;;;;;;;14.00;2.22;;;9.30;99.90;;;;;;5015227;28;20022;-59
2022/01/30 02:01:10;;;;;;;13.07;1.98;;;9.20;99.90;;;;;;5015721;28;20036;-59
2022/01/30 02:03:38;;;;;;;12.68;2.45;;;9.20;99.90;;;;;;5016412;28;20026;-56
2022/01/30 02:06:06;;;;;;;18.02;2.80;;;9.20;99.90;;;;;;5015124;28;20022;-59
2022/01/30 02:08:45;;;;;;;14.68;2.33;;;9.20;99.90;;;;;;5016402;28;20049;-59
2022/01/30 02:11:29;;;;;;;15.63;3.60;;;9.20;99.90;;;;;;5016671;28;20026;-58
2022/01/30 02:14:18;;;;;;;15.25;3.25;;;9.10;99.90;;;;;;5015561;28;20037;-59
2022/01/30 02:27:41;;;;;;;14.90;2.58;;;9.00;99.90;;;;;;5016419;28;20018;-59
2022/01/30 02:30:15;;;;;;;16.05;2.13;;;8.90;99.90;;;;;;5015591;28;20029;-59
2022/01/30 02:32:41;;;;;;;12.23;2.33;;;8.90;99.90;;;;;;5012998;28;20029;-59
2022/01/30 02:35:08;;;;;;;16.67;2.45;;;8.90;99.90;;;;;;5013804;28;20113;-58
2022/01/30 02:37:34;;;;;;;15.52;2.38;;;8.90;99.90;;;;;;5013766;28;20512;-57
2022/01/30 02:40:00;;;;;;;8.13;2.35;;;8.90;99.90;;;;;;5015777;28;20034;-56
2022/01/30 02:42:31;;;;;;;9.55;2.60;;;8.90;99.90;;;;;;5015119;28;20034;-59
2022/01/30 02:45:00;;;;;;;10.68;2.25;;;8.80;99.90;;;;;;5013297;28;20030;-59
2022/01/30 02:50:15;;;;;;;15.00;2.20;;;8.80;99.90;;;;;;5015099;28;20029;-59
2022/01/30 02:52:43;;;;;;;10.73;2.15;;;8.80;99.90;;;;;;5018531;28;20076;-58
2022/01/30 02:55:11;;;;;;;12.65;2.38;;;8.80;99.90;;;;;;5018948;28;20109;-57
2022/01/30 02:57:37;;;;;;;14.45;3.03;;;8.80;99.90;;;;;;5017740;28;20026;-59
2022/01/30 03:00:08;;;;;;;13.80;2.40;;;8.80;99.90;;;;;;5018034;28;20076;-58
2022/01/30 03:02:33;;;;;;;16.57;2.63;;;8.60;99.90;;;;;;5017532;28;20057;-59
2022/01/30 03:04:59;;;;;;;14.30;2.28;;;8.60;99.90;;;;;;5017821;28;20033;-59
2022/01/30 03:07:24;;;;;;;16.27;2.35;;;8.60;99.90;;;;;;5018671;28;20026;-57
2022/01/30 03:09:50;;;;;;;14.55;2.38;;;8.50;99.90;;;;;;5017611;28;20029;-58
2022/01/30 03:12:16;;;;;;;14.15;1.98;;;8.50;99.90;;;;;;5016744;28;20030;-58
2022/01/30 03:14:42;;;;;;;13.50;2.67;;;8.50;99.90;;;;;;5017330;28;20061;-56
2022/01/30 03:17:08;;;;;;;11.98;2.40;;;8.50;99.90;;;;;;5017214;28;20018;-57
2022/01/30 03:19:34;;;;;;;14.05;2.83;;;8.50;99.90;;;;;;5017282;28;20029;-58
2022/01/30 03:21:59;;;;;;;11.10;1.90;;;8.50;99.90;;;;;;5017185;28;20022;-57
2022/01/30 03:24:25;;;;;;;9.98;2.92;;;8.60;99.90;;;;;;5016944;28;20104;-57
2022/01/30 03:26:51;;;;;;;14.80;2.05;;;8.60;99.90;;;;;;5018221;28;20038;-59
2022/01/30 03:29:18;;;;;;;12.00;2.65;;;8.60;99.90;;;;;;5017003;28;20068;-58
2022/01/30 03:31:44;;;;;;;19.92;2.42;;;8.50;99.90;;;;;;5018097;28;20041;-59
2022/01/30 03:34:11;;;;;;;21.92;3.28;;;8.40;99.90;;;;;;5016767;28;20037;-58
2022/01/30 03:36:37;;;;;;;21.83;2.95;;;8.40;99.90;;;;;;5018043;28;20026;-59
2022/01/30 03:39:04;;;;;;;18.48;2.42;;;8.50;99.90;;;;;;5017176;28;20069;-58
2022/01/30 03:41:30;;;;;;;12.98;2.10;;;8.40;99.90;;;;;;5016537;28;20121;-57
2022/01/30 03:43:55;;;;;;;12.10;2.58;;;8.40;99.90;;;;;;5016526;28;20106;-59
2022/01/30 03:46:22;;;;;;;15.10;2.03;;;8.50;99.90;;;;;;5018141;28;20042;-57
2022/01/30 03:48:48;;;;;;;12.77;2.28;;;8.50;99.90;;;;;;5016613;28;20071;-57
2022/01/30 03:51:15;;;;;;;17.25;3.75;;;8.50;99.90;;;;;;5017738;28;20072;-57
2022/01/30 03:53:41;;;;;;;16.42;2.60;;;8.50;99.90;;;;;;5017642;28;20033;-59
2022/01/30 03:56:07;;;;;;;17.83;2.17;;;8.50;99.90;;;;;;5017736;28;20384;-58
2022/01/30 03:58:34;;;;;;;13.48;2.30;;;8.50;99.90;;;;;;5016577;28;20026;-58
2022/01/30 04:01:00;;;;;;;12.13;1.75;;;8.40;99.90;;;;;;5016577;28;20045;-59
2022/01/30 04:03:25;;;;;;;13.57;2.40;;;8.50;99.90;;;;;;5015326;28;20069;-58
2022/01/30 04:05:51;;;;;;;15.73;2.78;;;8.40;99.90;;;;;;5016045;28;20113;-58
2022/01/30 04:08:17;;;;;;;17.27;3.08;;;8.40;99.90;;;;;;5017350;28;20084;-59
2022/01/30 04:10:43;;;;;;;18.63;3.28;;;8.40;99.90;;;;;;5017392;28;20024;-58
2022/01/30 04:13:09;;;;;;;17.02;2.47;;;8.40;99.90;;;;;;5016919;28;20097;-59
2022/01/30 04:15:35;;;;;;;24.48;2.78;;;8.40;99.90;;;;;;5015723;28;20399;-55
2022/01/30 04:18:02;;;;;;;17.83;2.75;;;8.30;99.90;;;;;;5015827;28;20061;-59
2022/01/30 04:20:28;;;;;;;14.00;2.58;;;8.40;99.90;;;;;;5015489;28;20117;-58
2022/01/30 04:22:54;;;;;;;18.33;3.45;;;8.40;99.90;;;;;;5015384;28;20052;-59
2022/01/30 04:25:21;;;;;;;12.80;2.33;;;8.20;99.90;;;;;;5016789;28;20029;-57
2022/01/30 04:27:47;;;;;;;8.65;2.13;;;8.30;99.90;;;;;;5015326;28;20025;-59
2022/01/30 04:30:13;;;;;;;21.63;2.65;;;8.30;99.90;;;;;;5015413;28;20061;-58
2022/01/30 04:32:42;;;;;;;15.57;3.55;;;8.20;99.90;;;;;;5015455;28;20108;-58
2022/01/30 04:35:13;;;;;;;13.07;2.20;;;8.20;99.90;;;;;;5015624;28;20045;-58
2022/01/30 04:38:05;;;;;;;17.33;2.55;;;8.20;99.90;;;;;;5016486;28;20101;-59
2022/01/30 04:55:10;;;;;;;13.25;2.88;;;8.30;99.90;;;;;;5016437;28;20029;-57
2022/01/30 04:57:37;;;;;;;18.85;3.83;;;8.20;99.90;;;;;;5015685;28;20457;-59
2022/01/30 05:07:44;;;;;;;15.52;3.03;;;8.20;99.90;;;;;;5015588;28;20435;-58
2022/01/30 05:10:10;;;;;;;23.85;3.85;;;8.30;99.90;;;;;;5015489;28;20022;-56
2022/01/30 05:12:44;;;;;;;20.60;2.88;;;8.20;99.90;;;;;;5014001;28;20036;-59
2022/01/30 05:15:11;;;;;;;16.27;2.83;;;8.20;99.90;;;;;;5015667;28;20028;-57
2022/01/30 05:17:37;;;;;;;27.02;3.63;;;8.20;99.90;;;;;;5014116;28;20026;-59
2022/01/30 05:20:03;;;;;;;15.07;3.70;;;8.20;99.90;;;;;;5015147;28;20053;-58
2022/01/30 05:22:29;;;;;;;19.17;3.15;;;8.20;99.90;;;;;;5015378;28;20018;-58
2022/01/30 05:24:55;;;;;;;11.50;2.38;;;8.20;99.90;;;;;;5013950;28;20032;-59
2022/01/30 05:27:21;;;;;;;13.68;2.60;;;8.10;99.90;;;;;;5014016;28;20030;-57
2022/01/30 05:29:47;;;;;;;20.83;4.78;;;8.20;99.90;;;;;;5013842;28;20361;-57
2022/01/30 05:32:13;;;;;;;11.85;2.63;;;8.20;99.90;;;;;;5014027;28;20087;-59
2022/01/30 05:34:39;;;;;;;12.98;3.00;;;8.20;99.90;;;;;;5015021;28;20025;-59
2022/01/30 05:37:08;;;;;;;23.25;4.93;;;8.20;99.90;;;;;;5013964;28;20029;-58
2022/01/30 05:39:34;;;;;;;14.65;2.30;;;8.30;99.90;;;;;;5014414;28;20121;-58
2022/01/30 05:42:00;;;;;;;12.90;2.28;;;8.30;99.90;;;;;;5014731;28;20101;-59
2022/01/30 05:44:40;;;;;;;15.35;2.75;;;8.20;99.90;;;;;;5013101;28;20037;-55
2022/01/30 05:47:10;;;;;;;12.13;2.55;;;8.20;99.90;;;;;;5013508;28;20024;-58
2022/01/30 05:49:37;;;;;;;14.77;2.50;;;8.20;99.90;;;;;;5015148;28;20046;-59
2022/01/30 05:52:03;;;;;;;10.75;2.58;;;8.30;99.90;;;;;;5013453;28;20033;-59
2022/01/30 05:54:28;;;;;;;11.90;2.58;;;8.10;99.90;;;;;;5013495;28;20022;-55
2022/01/30 05:56:54;;;;;;;13.32;2.42;;;8.10;99.90;;;;;;5014797;28;20500;-59
2022/01/30 05:59:20;;;;;;;15.73;3.67;;;8.10;99.90;;;;;;5013391;28;20030;-59
2022/01/30 06:01:45;;;;;;;9.50;2.08;;;8.00;99.90;;;;;;5013705;28;20062;-56
2022/01/30 06:04:11;;;;;;;12.25;2.85;;;8.10;99.90;;;;;;5013450;28;20029;-59
2022/01/30 06:06:36;;;;;;;23.05;2.95;;;8.10;99.90;;;;;;5014485;28;20029;-58
2022/01/30 06:11:43;;;;;;;13.48;2.47;;;8.00;99.90;;;;;;5014567;28;20018;-58
2022/01/30 06:14:08;;;;;;;14.13;2.20;;;8.00;99.90;;;;;;5014700;28;20163;-58
2022/01/30 06:16:34;;;;;;;11.35;2.00;;;8.00;99.90;;;;;;5013717;28;20048;-58
2022/01/30 06:19:00;;;;;;;13.57;2.00;;;8.00;99.90;;;;;;5014554;28;20033;-59
2022/01/30 06:21:25;;;;;;;8.60;2.20;;;8.00;99.90;;;;;;5014670;28;20026;-59
2022/01/30 06:23:51;;;;;;;12.85;2.50;;;8.00;99.90;;;;;;5013292;28;20102;-59
2022/01/30 06:26:17;;;;;;;10.63;2.90;;;8.00;99.90;;;;;;5013017;28;20053;-59
2022/01/30 06:28:42;;;;;;;13.10;2.47;;;8.00;99.90;;;;;;5013661;28;20090;-59
2022/01/30 06:31:08;;;;;;;9.85;2.28;;;8.00;99.90;;;;;;5013798;28;20030;-55
2022/01/30 06:33:33;;;;;;;8.52;2.58;;;7.90;99.90;;;;;;5014411;28;20029;-59
2022/01/30 06:35:59;;;;;;;13.75;2.42;;;7.90;99.90;;;;;;5014243;28;20037;-58
2022/01/30 06:38:25;;;;;;;13.15;2.50;;;7.80;99.90;;;;;;5013362;28;20437;-59
2022/01/30 06:40:50;;;;;;;10.82;2.20;;;7.90;99.90;;;;;;5013608;28;20033;-58
2022/01/30 06:43:16;;;;;;;14.27;2.75;;;7.90;99.90;;;;;;5013468;28;20037;-59
2022/01/30 06:45:42;;;;;;;8.73;2.40;;;7.90;99.90;;;;;;5013939;28;20018;-57
2022/01/30 06:48:09;;;;;;;10.25;2.13;;;7.90;99.90;;;;;;5014789;28;20042;-59
2022/01/30 06:50:34;;;;;;;12.80;2.55;;;7.80;99.90;;;;;;5014344;28;20018;-59
2022/01/30 06:53:00;;;;;;;11.85;2.25;;;7.80;99.90;;;;;;5014825;28;20100;-58
2022/01/30 06:55:26;;;;;;;10.02;2.45;;;7.90;99.90;;;;;;5014492;28;20022;-58
2022/01/30 06:57:51;;;;;;;14.70;2.75;;;7.90;99.90;;;;;;5014569;28;20034;-57
2022/01/30 07:00:17;;;;;;;13.68;2.88;;;7.90;99.90;;;;;;5013521;28;20022;-58
2022/01/30 07:02:43;;;;;;;15.60;2.53;;;7.80;99.90;;;;;;5013494;28;20033;-55
2022/01/30 07:05:09;;;;;;;13.10;2.15;;;7.80;99.90;;;;;;5013402;28;20021;-58
2022/01/30 07:07:36;;;;;;;9.00;2.03;;;7.80;99.90;;;;;;5012858;28;20113;-56
2022/01/30 07:10:02;;;;;;;10.95;2.25;;;7.80;99.90;;;;;;5013520;28;20025;-58
2022/01/30 07:12:27;;;;;;;5.45;1.95;;;7.80;99.90;;;;;;5014265;28;20034;-58
2022/01/30 07:14:53;;;;;;;13.40;2.80;;;8.00;99.90;;;;;;5013760;28;20033;-58
2022/01/30 07:17:18;;;;;;;11.40;2.10;;;7.90;99.90;;;;;;5013382;28;20053;-57
2022/01/30 07:19:44;;;;;;;11.45;2.00;;;7.90;99.90;;;;;;5014532;28;20041;-58
2022/01/30 07:22:10;;;;;;;10.35;2.13;;;7.80;99.90;;;;;;5013557;28;20029;-58
2022/01/30 07:24:35;;;;;;;13.50;2.75;;;7.90;99.90;;;;;;5013994;28;20030;-59
2022/01/30 07:27:01;;;;;;;13.38;2.38;;;7.80;99.90;;;;;;5014511;28;20479;-58
2022/01/30 07:29:26;;;;;;;10.32;2.45;;;7.80;99.90;;;;;;5013742;28;20026;-59
2022/01/30 07:31:52;;;;;;;4.97;1.88;;;7.80;99.90;;;;;;5015270;28;20018;-59
2022/01/30 07:34:21;;;;;;;12.65;1.83;;;7.80;99.90;;;;;;5013536;28;20476;-59
2022/01/30 07:36:47;;;;;;;15.65;3.53;;;7.80;99.90;;;;;;5013736;28;20026;-59
2022/01/30 07:39:15;;;;;;;12.50;2.55;;;7.90;99.90;;;;;;5015291;28;20120;-57
2022/01/30 07:41:40;;;;;;;14.85;1.90;;;8.00;99.90;;;;;;5016467;28;20117;-59
2022/01/30 07:44:06;;;;;;;14.55;2.70;;;8.00;99.90;;;;;;5017206;28;20118;-57
2022/01/30 07:46:32;;;;;;;14.02;2.17;;;8.00;99.90;;;;;;5016148;28;20026;-59
2022/01/30 07:48:59;;;;;;;11.98;1.98;;;8.00;99.90;;;;;;5016215;28;20132;-59
2022/01/30 07:51:24;;;;;;;11.13;2.78;;;8.10;99.90;;;;;;5017150;28;20511;-59
2022/01/30 07:53:50;;;;;;;6.90;2.10;;;8.10;99.90;;;;;;5015827;28;20030;-59
2022/01/30 07:56:15;;;;;;;6.80;2.53;;;8.10;99.90;;;;;;5017033;28;20030;-56
2022/01/30 07:58:41;;;;;;;12.98;2.90;;;8.20;99.90;;;;;;5016160;28;20030;-59
2022/01/30 08:01:07;;;;;;;15.30;2.35;;;8.20;99.90;;;;;;5016285;28;20021;-59
2022/01/30 08:03:32;;;;;;;7.53;2.20;;;8.30;99.90;;;;;;5016348;28;20116;-59
2022/01/30 08:05:58;;;;;;;25.15;5.20;;;8.50;99.90;;;;;;5015521;28;20021;-59
2022/01/30 08:08:24;;;;;;;12.32;2.97;;;9.00;99.90;;;;;;5017021;28;20022;-58
2022/01/30 08:10:49;;;;;;;17.65;2.50;;;9.20;99.90;;;;;;5017628;28;20072;-59
2022/01/30 08:13:16;;;;;;;13.20;4.22;;;9.60;99.90;;;;;;5019183;28;20026;-59
2022/01/30 08:15:44;;;;;;;14.60;2.92;;;10.00;99.90;;;;;;5018230;28;20034;-59
2022/01/30 08:18:10;;;;;;;14.15;3.08;;;10.70;99.90;;;;;;5018657;28;20022;-59
2022/01/30 08:20:35;;;;;;;11.23;2.65;;;11.40;99.90;;;;;;5017071;28;20033;-59
2022/01/30 08:23:07;;;;;;;11.43;2.60;;;12.10;99.90;;;;;;5017126;28;20088;-59
2022/01/30 08:25:33;;;;;;;10.85;2.25;;;12.60;99.90;;;;;;5018739;28;20022;-57
2022/01/30 08:27:59;;;;;;;8.98;2.67;;;12.70;99.90;;;;;;5017329;28;20076;-59
2022/01/30 08:30:27;;;;;;;9.90;2.55;;;12.60;99.90;;;;;;5017660;28;20053;-59
2022/01/30 08:32:52;;;;;;;10.40;2.88;;;12.10;99.90;;;;;;5015941;28;20053;-59
2022/01/30 08:35:31;;;;;;;11.55;2.85;;;11.90;99.90;;;;;;5014878;28;20052;-56
2022/01/30 08:37:58;;;;;;;17.35;2.88;;;12.40;99.90;;;;;;5016197;28;20026;-56
2022/01/30 08:40:24;;;;;;;13.35;2.40;;;12.40;99.90;;;;;;5015765;28;20022;-58
2022/01/30 08:42:50;;;;;;;14.38;2.28;;;12.00;99.90;;;;;;5014714;28;20038;-59
2022/01/30 08:45:18;;;;;;;15.27;2.78;;;12.10;99.90;;;;;;5015116;28;20391;-53
2022/01/30 08:47:46;;;;;;;14.07;2.53;;;12.50;99.90;;;;;;5014512;28;20058;-58
2022/01/30 08:50:13;;;;;;;9.52;2.78;;;13.20;99.90;;;;;;5015316;28;20030;-57
2022/01/30 08:52:39;;;;;;;11.75;2.90;;;14.20;99.90;;;;;;5014359;28;20117;-56
2022/01/30 08:55:44;;;;;;;14.32;3.08;;;14.70;99.90;;;;;;5013926;28;20520;-58
2022/01/30 08:58:10;;;;;;;6.95;1.70;;;15.30;99.90;;;;;;5014169;28;20034;-56
2022/01/30 09:00:37;;;;;;;9.15;3.15;;;16.20;99.90;;;;;;5015463;28;20092;-57
2022/01/30 09:03:04;;;;;;;9.68;2.67;;;16.80;99.90;;;;;;5013643;28;20061;-58
2022/01/30 09:05:31;;;;;;;13.80;3.03;;;17.30;99.90;;;;;;5014240;28;20021;-60
2022/01/30 09:07:57;;;;;;;13.38;3.67;;;17.60;97.30;;;;;;5013928;28;20026;-60
2022/01/30 09:10:23;;;;;;;10.63;2.83;;;17.60;97.50;;;;;;5015157;28;20022;-60
2022/01/30 09:12:48;;;;;;;15.25;3.42;;;17.70;97.90;;;;;;5014044;28;20029;-60
2022/01/30 09:15:16;;;;;;;12.02;2.75;;;17.10;96.70;;;;;;5013817;28;20046;-59
2022/01/30 09:17:43;;;;;;;17.38;4.32;;;16.40;98.30;;;;;;5014728;28;20391;-60
2022/01/30 09:20:09;;;;;;;16.80;3.10;;;15.90;96.20;;;;;;5013797;28;20030;-57
2022/01/30 09:22:36;;;;;;;14.50;3.13;;;15.60;98.90;;;;;;5013463;28;20116;-59
2022/01/30 09:25:02;;;;;;;14.30;2.92;;;15.30;98.60;;;;;;5015242;28;20026;-59
2022/01/30 09:27:28;;;;;;;16.73;3.50;;;14.80;98.70;;;;;;5014451;28;20089;-59
2022/01/30 09:29:55;;;;;;;12.13;3.22;;;14.30;98.80;;;;;;5016146;28;20065;-60
2022/01/30 09:32:20;;;;;;;18.23;3.78;;;13.90;99.90;;;;;;5015954;28;20022;-59
2022/01/30 09:34:46;;;;;;;17.27;3.50;;;13.40;99.90;;;;;;5016221;28;20022;-57
2022/01/30 09:37:11;;;;;;;20.02;3.42;;;13.20;99.90;;;;;;5016611;28;20033;-58
2022/01/30 09:39:37;;;;;;;17.13;3.33;;;13.00;99.90;;;;;;5017770;28;20080;-57
2022/01/30 09:42:04;;;;;;;13.32;2.67;;;12.70;99.90;;;;;;5016846;28;20080;-59
2022/01/30 09:44:30;;;;;;;20.58;3.75;;;12.40;99.90;;;;;;5016751;28;20117;-56
2022/01/30 09:46:56;;;;;;;13.90;3.00;;;12.20;99.90;;;;;;5017254;28;20072;-59
2022/01/30 09:49:24;;;;;;;14.25;4.00;;;11.90;99.90;;;;;;5016807;28;20029;-57
2022/01/30 09:51:51;;;;;;;17.00;3.80;;;12.00;99.90;;;;;;5016821;28;20028;-59
2022/01/30 09:54:17;;;;;;;15.88;3.17;;;12.30;99.90;;;;;;5016175;28;20032;-57
2022/01/30 09:56:43;;;;;;;22.33;3.40;;;12.60;99.90;;;;;;5016944;28;20085;-58
2022/01/30 09:59:08;;;;;;;12.48;2.67;;;13.20;99.90;;;;;;5017512;28;20030;-59
2022/01/30 10:01:36;;;;;;;12.55;2.75;;;13.40;99.90;;;;;;5015525;28;20033;-59
2022/01/30 10:04:04;;;;;;;15.25;3.00;;;13.50;99.90;;;;;;5015800;28;20060;-59
2022/01/30 10:06:34;;;;;;;15.10;2.33;;;13.50;99.90;;;;;;5015298;28;20033;-59
2022/01/30 10:09:26;;;;;;;11.27;2.70;;;13.40;99.90;;;;;;5017031;28;20057;-59
2022/01/30 10:12:09;;;;;;;7.60;2.05;;;13.40;99.90;;;;;;5016957;28;20030;-58
2022/01/30 10:14:46;;;;;;;9.10;2.83;;;13.20;99.90;;;;;;5016441;28;20030;-57
2022/01/30 10:17:25;;;;;;;14.38;3.78;;;12.90;99.90;;;;;;5017398;28;20080;-59
2022/01/30 10:20:06;;;;;;;12.10;2.90;;;12.50;99.90;;;;;;5016243;28;20058;-59
2022/01/30 10:22:33;;;;;;;13.55;2.63;;;12.10;99.90;;;;;;5015366;28;20034;-56
2022/01/30 10:24:59;;;;;;;9.30;2.08;;;11.80;99.90;;;;;;5014289;28;20022;-58
2022/01/30 10:27:27;;;;;;;9.55;2.17;;;11.70;99.90;;;;;;5014752;28;20026;-58
2022/01/30 10:29:59;;;;;;;12.05;2.60;;;11.60;99.90;;;;;;5015194;28;20459;-59
2022/01/30 10:32:24;;;;;;;;;;;11.60;99.90;;;;;;5015275;28;20021;-58
2022/01/30 10:35:07;;;;;;;13.52;2.50;;;11.50;99.90;;;;;;5016136;28;19906;-59
2022/01/30 10:37:36;;;;;;;15.93;3.60;;;11.40;99.90;;;;;;5014183;28;20030;-59
2022/01/30 10:40:06;;;;;;;14.05;2.85;;;11.30;99.90;;;;;;5014620;28;20492;-57
2022/01/30 10:42:52;;;;;;;14.10;3.22;;;11.20;99.90;;;;;;5014128;28;20038;-57
2022/01/30 10:45:31;;;;;;;19.38;3.28;;;11.10;99.90;;;;;;5015422;28;20029;-59
2022/01/30 10:48:10;;;;;;;17.67;4.15;;;11.10;99.90;;;;;;5013855;28;20034;-57
2022/01/30 10:50:44;;;;;;;11.40;2.20;;;10.90;99.90;;;;;;5014278;28;20157;-58
2022/01/30 10:53:25;;;;;;;11.65;2.60;;;10.80;99.90;;;;;;5014330;28;20026;-56
2022/01/30 10:55:51;;;;;;;15.25;2.83;;;10.80;99.90;;;;;;5014493;28;20029;-58
2022/01/30 10:58:20;;;;;;;19.90;3.50;;;10.80;99.90;;;;;;5014786;28;20037;-56
2022/01/30 11:00:52;;;;;;;10.68;2.83;;;10.70;99.90;;;;;;5012145;28;20018;-54
2022/01/30 11:03:41;;;;;;;16.83;3.40;;;10.60;99.90;;;;;;5012812;28;20026;-55
2022/01/30 11:06:10;;;;;;;9.65;2.28;;;10.70;99.90;;;;;;5013243;28;20014;-55
2022/01/30 11:08:40;;;;;;;12.07;2.63;;;10.50;99.90;;;;;;5013217;28;20030;-56
2022/01/30 11:11:14;;;;;;;16.85;3.05;;;10.70;99.90;;;;;;5013499;28;20022;-55
2022/01/30 11:14:34;;;;;;;20.67;3.42;;;10.60;99.90;;;;;;5015635;28;20026;-55
2022/01/30 11:19:17;;;;;;;25.90;5.95;;;10.50;99.90;;;;;;5017487;28;20079;-55
2022/01/30 11:21:44;;;;;;;19.17;3.30;;;10.50;99.90;;;;;;5015661;28;20038;-53
2022/01/30 11:24:12;;;;;;;19.63;3.40;;;10.60;99.90;;;;;;5015619;28;20030;-55
2022/01/30 11:26:39;;;;;;;17.63;3.67;;;10.60;99.90;;;;;;5015686;28;20028;-56
2022/01/30 11:29:17;;;;;;;18.80;3.17;;;10.40;99.90;;;;;;5016697;28;20026;-55
2022/01/30 11:31:43;;;;;;;18.70;2.72;;;10.60;99.90;;;;;;5015515;28;20018;-57
2022/01/30 11:34:09;;;;;;;18.27;2.85;;;10.60;99.90;;;;;;5016855;28;20093;-55
2022/01/30 11:36:40;;;;;;;13.57;2.20;;;10.60;99.90;;;;;;5015485;28;20026;-53
2022/01/30 11:39:07;;;;;;;19.15;2.85;;;10.60;99.90;;;;;;5015247;28;20029;-58
2022/01/30 11:41:34;;;;;;;16.05;3.00;;;10.70;99.90;;;;;;5015212;28;20026;-54
2022/01/30 11:44:20;;;;;;;20.80;3.95;;;10.60;99.90;;;;;;5015520;28;20044;-54
2022/01/30 11:46:52;;;;;;;19.45;3.67;;;10.60;99.90;;;;;;5015125;28;20076;-57
2022/01/30 11:49:18;;;;;;;17.48;3.05;;;10.50;99.90;;;;;;5016275;28;20018;-55
2022/01/30 11:51:56;;;;;;;19.17;4.13;;;10.50;99.90;;;;;;5015300;28;20109;-56
2022/01/30 11:54:54;;;;;;;20.17;3.60;;;10.50;99.90;;;;;;5016146;28;20120;-56
2022/01/30 11:57:20;;;;;;;14.77;2.80;;;10.50;99.90;;;;;;5014439;28;20034;-58
2022/01/30 11:59:47;;;;;;;18.85;3.25;;;10.40;99.90;;;;;;5015130;28;20026;-56
2022/01/30 12:02:33;;;;;;;10.95;2.53;;;10.40;99.90;;;;;;5014894;28;20026;-58
2022/01/30 12:05:05;;;;;;;17.30;3.75;;;10.50;99.90;;;;;;5016365;28;20101;-51
2022/01/30 12:07:34;;;;;;;;;;;10.50;99.90;;;;;;5016488;28;20022;-55
2022/01/30 12:10:19;;;;;;;16.90;3.03;;;10.60;99.90;;;;;;5014833;28;19909;-56
2022/01/30 12:12:53;;;;;;;18.38;3.33;;;10.60;99.90;;;;;;5015800;28;20026;-57
2022/01/30 12:15:43;;;;;;;17.33;3.13;;;10.60;99.90;;;;;;5015084;28;20112;-58
2022/01/30 12:18:44;;;;;;;17.88;3.13;;;10.70;99.90;;;;;;5015809;28;20029;-54
2022/01/30 12:21:16;;;;;;;18.60;3.60;;;10.70;99.90;;;;;;5014524;28;20034;-58
2022/01/30 12:23:43;;;;;;;25.00;3.55;;;10.70;99.90;;;;;;5013646;28;20022;-57
2022/01/30 12:26:10;;;;;;;17.95;3.33;;;10.70;99.90;;;;;;5015738;28;20085;-57
2022/01/30 12:28:50;;;;;;;22.92;3.67;;;10.60;99.90;;;;;;5014799;28;20018;-54
2022/01/30 12:31:30;;;;;;;19.83;3.65;;;10.70;99.90;;;;;;5014640;28;20391;-57
2022/01/30 12:34:10;;;;;;;14.57;3.42;;;10.70;99.90;;;;;;5015527;28;20026;-57
2022/01/30 12:36:51;;;;;;;20.30;3.95;;;10.70;99.90;;;;;;5015492;28;20041;-58
2022/01/30 12:39:21;;;;;;;17.77;4.05;;;10.70;99.90;;;;;;5014290;28;20030;-53
2022/01/30 12:41:48;;;;;;;17.13;3.25;;;10.70;99.90;;;;;;5015376;28;20033;-56
2022/01/30 12:44:20;;;;;;;17.73;3.50;;;10.70;99.90;;;;;;5014106;28;20053;-58
2022/01/30 12:46:49;;;;;;;;;;;10.60;99.90;;;;;;5015782;28;20024;-58
2022/01/30 12:49:17;;;;;;;17.42;3.28;;;10.60;99.90;;;;;;5014397;28;19949;-56
2022/01/30 12:51:48;;;;;;;13.27;3.30;;;10.60;99.90;;;;;;5015538;28;20029;-54
2022/01/30 12:54:16;;;;;;;20.95;3.83;;;10.60;99.90;;;;;;5015151;28;20026;-57
2022/01/30 12:56:43;;;;;;;22.40;3.47;;;10.40;99.90;;;;;;5014202;28;20124;-58
2022/01/30 12:59:10;;;;;;;20.23;3.00;;;10.40;99.90;;;;;;5014436;28;20037;-56
2022/01/30 13:01:40;;;;;;;13.90;2.92;;;10.40;99.90;;;;;;5014153;28;20029;-58
2022/01/30 13:04:12;;;;;;;15.63;4.03;;;10.40;99.90;;;;;;5013618;28;20117;-59
2022/01/30 13:06:40;;;;;;;17.90;3.72;;;10.40;99.90;;;;;;5014921;28;20032;-58
2022/01/30 13:09:07;;;;;;;26.02;4.05;;;10.50;99.90;;;;;;5014810;28;20538;-53
2022/01/30 13:11:33;;;;;;;21.52;3.60;;;10.50;99.90;;;;;;5014327;28;20026;-57
2022/01/30 13:14:09;;;;;;;20.40;3.78;;;10.60;99.90;;;;;;5015225;28;20096;-58
2022/01/30 13:16:46;;;;;;;16.73;3.17;;;10.70;99.90;;;;;;5014386;28;20022;-57
2022/01/30 13:19:14;;;;;;;16.35;3.83;;;10.70;99.90;;;;;;5014724;28;20030;-58
2022/01/30 13:21:46;;;;;;;14.05;2.60;;;10.60;99.90;;;;;;5014735;28;20058;-58
2022/01/30 13:24:17;;;;;;;16.27;3.00;;;10.60;99.90;;;;;;5014559;28;20026;-58
2022/01/30 13:26:44;;;;;;;21.08;3.40;;;10.60;99.90;;;;;;5014262;28;20109;-57
2022/01/30 13:29:15;;;;;;;16.65;3.28;;;10.50;99.90;;;;;;5014800;28;20048;-57
2022/01/30 13:31:44;;;;;;;24.33;4.38;;;10.60;99.90;;;;;;5013347;28;20026;-57
2022/01/30 13:34:18;;;;;;;13.82;3.10;;;10.50;99.90;;;;;;5014388;28;20036;-55
2022/01/30 13:36:53;;;;;;;14.68;3.08;;;10.50;99.90;;;;;;5014485;28;20097;-56
2022/01/30 13:39:26;;;;;;;16.33;3.17;;;10.40;99.90;;;;;;5014116;28;20041;-58
2022/01/30 13:42:13;;;;;;;27.65;3.47;;;10.40;99.90;;;;;;5013251;28;20036;-58
2022/01/30 13:44:39;;;;;;;22.50;3.72;;;10.40;99.90;;;;;;5014004;28;20037;-57
2022/01/30 13:47:05;;;;;;;19.58;4.70;;;10.30;99.90;;;;;;5012917;28;20033;-58
2022/01/30 13:49:42;;;;;;;28.05;4.50;;;10.20;99.90;;;;;;5013096;28;20022;-58
2022/01/30 13:52:10;;;;;;;13.98;3.20;;;10.20;99.90;;;;;;5012973;28;20022;-55
2022/01/30 13:54:39;;;;;;;16.23;4.07;;;10.30;99.90;;;;;;5012899;28;20030;-55